sensor_id;sensor_type;location;lat;lon;timestamp;pressure;altitude;pressure_sealevel;temperature;humidity
51313;BME280;37397;53.226;10.400;2023-04-28T00:01:10;101415.50;;;9.74;52.28
51313;BME280;37397;53.226;10.400;2023-04-28T00:03:37;101410.38;;;9.68;52.25
51313;BME280;37397;53.226;10.400;2023-04-28T00:06:04;101414.84;;;9.70;52.30
51313;BME280;37397;53.226;10.400;2023-04-28T00:08:31;101397.06;;;9.65;52.42
51313;BME280;37397;53.226;10.400;2023-04-28T00:10:58;101389.88;;;9.61;52.37
51313;BME280;37397;53.226;10.400;2023-04-28T00:13:24;101391.63;;;9.58;52.29
51313;BME280;37397;53.226;10.400;2023-04-28T00:15:51;101402.56;;;9.60;52.43
51313;BME280;37397;53.226;10.400;2023-04-28T00:18:19;101399.03;;;9.56;52.42
51313;BME280;37397;53.226;10.400;2023-04-28T00:20:46;101398.69;;;9.54;52.46
51313;BME280;37397;53.226;10.400;2023-04-28T00:23:13;101393.91;;;9.51;52.53
51313;BME280;37397;53.226;10.400;2023-04-28T00:25:39;101395.97;;;9.50;52.64
51313;BME280;37397;53.226;10.400;2023-04-28T00:28:06;101396.44;;;9.48;52.54
51313;BME280;37397;53.226;10.400;2023-04-28T00:30:32;101388.81;;;9.45;52.60
51313;BME280;37397;53.226;10.400;2023-04-28T00:32:58;101396.06;;;9.46;52.79
51313;BME280;37397;53.226;10.400;2023-04-28T00:35:25;101389.38;;;9.40;52.73
51313;BME280;37397;53.226;10.400;2023-04-28T00:37:51;101390.31;;;9.37;52.63
51313;BME280;37397;53.226;10.400;2023-04-28T00:40:18;101377.31;;;9.36;52.61
51313;BME280;37397;53.226;10.400;2023-04-28T00:42:44;101379.38;;;9.36;52.72
51313;BME280;37397;53.226;10.400;2023-04-28T00:45:11;101371.38;;;9.30;52.74
51313;BME280;37397;53.226;10.400;2023-04-28T00:47:37;101373.44;;;9.30;52.90
51313;BME280;37397;53.226;10.400;2023-04-28T00:50:04;101363.44;;;9.25;52.78
51313;BME280;37397;53.226;10.400;2023-04-28T00:52:31;101365.03;;;9.26;52.94
51313;BME280;37397;53.226;10.400;2023-04-28T00:54:58;101361.03;;;9.24;53.07
51313;BME280;37397;53.226;10.400;2023-04-28T00:57:24;101351.59;;;9.14;52.89
51313;BME280;37397;53.226;10.400;2023-04-28T00:59:51;101364.81;;;9.21;52.92
51313;BME280;37397;53.226;10.400;2023-04-28T01:02:18;101361.28;;;9.17;53.08
51313;BME280;37397;53.226;10.400;2023-04-28T01:04:45;101361.28;;;9.17;53.02
51313;BME280;37397;53.226;10.400;2023-04-28T01:07:13;101355.38;;;9.11;53.15
51313;BME280;37397;53.226;10.400;2023-04-28T01:09:40;101356.19;;;9.11;53.10
51313;BME280;37397;53.226;10.400;2023-04-28T01:12:08;101364.03;;;9.07;53.16
51313;BME280;37397;53.226;10.400;2023-04-28T01:14:42;101357.69;;;9.03;53.02
51313;BME280;37397;53.226;10.400;2023-04-28T01:17:09;101354.47;;;9.01;53.24
51313;BME280;37397;53.226;10.400;2023-04-28T01:19:36;101350.84;;;9.01;53.15
51313;BME280;37397;53.226;10.400;2023-04-28T01:22:03;101342.41;;;8.97;53.20
51313;BME280;37397;53.226;10.400;2023-04-28T01:24:30;101340.94;;;8.92;53.24
51313;BME280;37397;53.226;10.400;2023-04-28T01:27:01;101350.59;;;8.95;53.28
51313;BME280;37397;53.226;10.400;2023-04-28T01:29:28;101333.00;;;8.87;53.25
51313;BME280;37397;53.226;10.400;2023-04-28T01:31:54;101336.94;;;8.90;53.27
51313;BME280;37397;53.226;10.400;2023-04-28T01:34:21;101345.94;;;8.88;53.17
51313;BME280;37397;53.226;10.400;2023-04-28T01:36:47;101328.34;;;8.81;53.35
51313;BME280;37397;53.226;10.400;2023-04-28T01:39:14;101327.06;;;8.82;53.41
51313;BME280;37397;53.226;10.400;2023-04-28T01:41:41;101341.75;;;8.80;53.22
51313;BME280;37397;53.226;10.400;2023-04-28T01:44:07;101320.34;;;8.75;53.26
51313;BME280;37397;53.226;10.400;2023-04-28T01:46:34;101332.53;;;8.76;53.26
51313;BME280;37397;53.226;10.400;2023-04-28T01:49:01;101326.63;;;8.70;53.38
51313;BME280;37397;53.226;10.400;2023-04-28T01:51:28;101335.16;;;8.70;53.46
51313;BME280;37397;53.226;10.400;2023-04-28T01:53:54;101325.94;;;8.66;53.41
51313;BME280;37397;53.226;10.400;2023-04-28T01:56:22;101325.94;;;8.66;53.30
51313;BME280;37397;53.226;10.400;2023-04-28T01:58:50;101320.03;;;8.61;53.55
51313;BME280;37397;53.226;10.400;2023-04-28T02:01:16;101322.06;;;8.60;53.57
51313;BME280;37397;53.226;10.400;2023-04-28T02:03:43;101329.78;;;8.60;53.36
51313;BME280;37397;53.226;10.400;2023-04-28T02:06:10;101316.16;;;8.54;53.71
51313;BME280;37397;53.226;10.400;2023-04-28T02:08:36;101321.03;;;8.54;53.33
51313;BME280;37397;53.226;10.400;2023-04-28T02:11:04;101318.66;;;8.52;53.41
51313;BME280;37397;53.226;10.400;2023-04-28T02:13:30;101320.34;;;8.50;53.48
51313;BME280;37397;53.226;10.400;2023-04-28T02:16:00;101318.78;;;8.49;53.21
51313;BME280;37397;53.226;10.400;2023-04-28T02:18:27;101312.41;;;8.45;53.52
51313;BME280;37397;53.226;10.400;2023-04-28T02:21:07;101299.50;;;8.40;53.35
51313;BME280;37397;53.226;10.400;2023-04-28T02:23:34;101307.25;;;8.39;53.63
51313;BME280;37397;53.226;10.400;2023-04-28T02:26:03;101307.69;;;8.38;53.56
51313;BME280;37397;53.226;10.400;2023-04-28T02:28:30;101313.50;;;8.34;53.55
51313;BME280;37397;53.226;10.400;2023-04-28T02:31:07;101305.53;;;8.29;53.29
51313;BME280;37397;53.226;10.400;2023-04-28T02:33:34;101303.94;;;8.28;53.61
51313;BME280;37397;53.226;10.400;2023-04-28T02:36:02;101309.63;;;8.28;53.63
51313;BME280;37397;53.226;10.400;2023-04-28T02:38:29;101297.22;;;8.22;53.48
51313;BME280;37397;53.226;10.400;2023-04-28T02:41:02;101306.53;;;8.22;53.63
51313;BME280;37397;53.226;10.400;2023-04-28T02:43:31;101307.91;;;8.18;53.62
51313;BME280;37397;53.226;10.400;2023-04-28T02:45:57;101305.06;;;8.18;53.53
51313;BME280;37397;53.226;10.400;2023-04-28T02:48:24;101301.09;;;8.15;53.65
51313;BME280;37397;53.226;10.400;2023-04-28T02:50:52;101297.91;;;8.13;53.60
51313;BME280;37397;53.226;10.400;2023-04-28T02:53:19;101293.91;;;8.11;53.64
51313;BME280;37397;53.226;10.400;2023-04-28T02:55:46;101273.78;;;8.05;53.57
51313;BME280;37397;53.226;10.400;2023-04-28T02:58:13;101277.53;;;8.02;53.75
51313;BME280;37397;53.226;10.400;2023-04-28T03:00:39;101276.72;;;8.01;53.67
51313;BME280;37397;53.226;10.400;2023-04-28T03:03:06;101273.88;;;8.01;53.86
51313;BME280;37397;53.226;10.400;2023-04-28T03:05:33;101270.47;;;7.94;53.75
51313;BME280;37397;53.226;10.400;2023-04-28T03:07:59;101266.81;;;7.93;53.54
51313;BME280;37397;53.226;10.400;2023-04-28T03:10:27;101259.91;;;7.94;53.86
51313;BME280;37397;53.226;10.400;2023-04-28T03:12:53;101256.34;;;7.90;53.89
51313;BME280;37397;53.226;10.400;2023-04-28T03:15:20;101255.56;;;7.90;53.78
51313;BME280;37397;53.226;10.400;2023-04-28T03:17:46;101261.38;;;7.86;53.88
51313;BME280;37397;53.226;10.400;2023-04-28T03:20:14;101254.88;;;7.85;53.72
51313;BME280;37397;53.226;10.400;2023-04-28T03:22:40;101248.06;;;7.83;53.79
51313;BME280;37397;53.226;10.400;2023-04-28T03:25:07;101250.19;;;7.79;53.86
51313;BME280;37397;53.226;10.400;2023-04-28T03:27:41;101241.00;;;7.75;53.96
51313;BME280;37397;53.226;10.400;2023-04-28T03:30:07;101241.34;;;7.77;53.80
51313;BME280;37397;53.226;10.400;2023-04-28T03:32:36;101235.19;;;7.65;53.94
51313;BME280;37397;53.226;10.400;2023-04-28T03:35:03;101234.72;;;7.67;53.87
51313;BME280;37397;53.226;10.400;2023-04-28T03:37:29;101242.47;;;7.66;53.96
51313;BME280;37397;53.226;10.400;2023-04-28T03:39:56;101229.63;;;7.62;53.97
51313;BME280;37397;53.226;10.400;2023-04-28T03:42:23;101232.00;;;7.63;53.95
51313;BME280;37397;53.226;10.400;2023-04-28T03:45:06;101225.97;;;7.61;53.90
51313;BME280;37397;53.226;10.400;2023-04-28T03:47:33;101223.69;;;7.56;53.87
51313;BME280;37397;53.226;10.400;2023-04-28T03:50:00;101217.22;;;7.56;54.07
51313;BME280;37397;53.226;10.400;2023-04-28T03:52:26;101209.69;;;7.49;54.05
51313;BME280;37397;53.226;10.400;2023-04-28T03:54:53;101214.47;;;7.52;53.80
51313;BME280;37397;53.226;10.400;2023-04-28T03:57:20;101212.88;;;7.51;54.11
51313;BME280;37397;53.226;10.400;2023-04-28T03:59:46;101209.25;;;7.51;54.41
51313;BME280;37397;53.226;10.400;2023-04-28T04:02:14;101208.88;;;7.48;54.17
51313;BME280;37397;53.226;10.400;2023-04-28T04:04:42;101212.16;;;7.47;54.31
51313;BME280;37397;53.226;10.400;2023-04-28T04:07:10;101202.53;;;7.44;54.29
51313;BME280;37397;53.226;10.400;2023-04-28T04:09:36;101207.06;;;7.42;54.34
51313;BME280;37397;53.226;10.400;2023-04-28T04:12:03;101198.53;;;7.42;54.16
51313;BME280;37397;53.226;10.400;2023-04-28T04:14:30;101191.81;;;7.36;54.32
51313;BME280;37397;53.226;10.400;2023-04-28T04:16:58;101198.66;;;7.38;54.37
51313;BME280;37397;53.226;10.400;2023-04-28T04:19:24;101201.94;;;7.37;54.35
51313;BME280;37397;53.226;10.400;2023-04-28T04:21:53;101200.34;;;7.36;54.46
51313;BME280;37397;53.226;10.400;2023-04-28T04:24:20;101192.28;;;7.34;54.24
51313;BME280;37397;53.226;10.400;2023-04-28T04:26:47;101202.84;;;7.34;54.73
51313;BME280;37397;53.226;10.400;2023-04-28T04:29:27;101187.59;;;7.27;54.62
51313;BME280;37397;53.226;10.400;2023-04-28T04:31:53;101187.50;;;7.31;54.82
51313;BME280;37397;53.226;10.400;2023-04-28T04:34:20;101186.69;;;7.30;54.62
51313;BME280;37397;53.226;10.400;2023-04-28T04:36:47;101174.28;;;7.24;54.59
51313;BME280;37397;53.226;10.400;2023-04-28T04:39:13;101178.72;;;7.25;54.72
51313;BME280;37397;53.226;10.400;2023-04-28T04:41:40;101183.19;;;7.26;54.56
51313;BME280;37397;53.226;10.400;2023-04-28T04:44:31;101174.28;;;7.24;54.73
51313;BME280;37397;53.226;10.400;2023-04-28T04:46:59;101178.72;;;7.25;54.59
51313;BME280;37397;53.226;10.400;2023-04-28T04:49:26;101150.75;;;7.11;54.61
51313;BME280;37397;53.226;10.400;2023-04-28T04:51:54;101171.13;;;7.22;54.53
51313;BME280;37397;53.226;10.400;2023-04-28T04:54:20;101166.72;;;7.21;54.52
51313;BME280;37397;53.226;10.400;2023-04-28T04:56:47;101166.22;;;7.23;54.83
51313;BME280;37397;53.226;10.400;2023-04-28T04:59:20;101160.22;;;7.21;54.83
51313;BME280;37397;53.226;10.400;2023-04-28T05:01:54;101153.41;;;7.18;54.63
51313;BME280;37397;53.226;10.400;2023-04-28T05:04:22;101161.81;;;7.22;55.14
51313;BME280;37397;53.226;10.400;2023-04-28T05:06:49;101148.84;;;7.21;54.95
51313;BME280;37397;53.226;10.400;2023-04-28T05:09:17;101145.09;;;7.11;54.85
51313;BME280;37397;53.226;10.400;2023-04-28T05:11:44;101157.72;;;7.23;54.93
51313;BME280;37397;53.226;10.400;2023-04-28T05:14:11;101150.47;;;7.22;54.98
51313;BME280;37397;53.226;10.400;2023-04-28T05:16:41;101154.53;;;7.21;55.16
51313;BME280;37397;53.226;10.400;2023-04-28T05:19:10;101150.00;;;7.23;55.05
51313;BME280;37397;53.226;10.400;2023-04-28T05:21:37;101153.19;;;7.25;54.88
51313;BME280;37397;53.226;10.400;2023-04-28T05:24:04;101139.91;;;7.22;55.20
51313;BME280;37397;53.226;10.400;2023-04-28T05:26:30;101133.53;;;7.18;54.96
51313;BME280;37397;53.226;10.400;2023-04-28T05:29:03;101129.25;;;7.26;55.22
51313;BME280;37397;53.226;10.400;2023-04-28T05:31:30;101151.50;;;7.28;55.30
51313;BME280;37397;53.226;10.400;2023-04-28T05:33:57;101146.16;;;7.30;55.09
51313;BME280;37397;53.226;10.400;2023-04-28T05:36:24;101140.38;;;7.34;55.19
51313;BME280;37397;53.226;10.400;2023-04-28T05:38:51;101137.88;;;7.36;55.20
51313;BME280;37397;53.226;10.400;2023-04-28T05:41:18;101134.59;;;7.37;55.60
51313;BME280;37397;53.226;10.400;2023-04-28T05:43:44;101136.88;;;7.42;55.25
51313;BME280;37397;53.226;10.400;2023-04-28T05:46:11;101125.88;;;7.44;55.33
51313;BME280;37397;53.226;10.400;2023-04-28T05:48:56;101120.53;;;7.46;55.16
51313;BME280;37397;53.226;10.400;2023-04-28T05:51:23;101120.78;;;7.52;55.39
51313;BME280;37397;53.226;10.400;2023-04-28T05:53:50;101121.09;;;7.54;55.09
51313;BME280;37397;53.226;10.400;2023-04-28T05:56:17;101118.97;;;7.58;55.12
51313;BME280;37397;53.226;10.400;2023-04-28T05:58:43;101120.88;;;7.61;55.39
51313;BME280;37397;53.226;10.400;2023-04-28T06:01:10;101110.78;;;7.60;55.40
51313;BME280;37397;53.226;10.400;2023-04-28T06:03:38;101115.44;;;7.67;55.33
51313;BME280;37397;53.226;10.400;2023-04-28T06:06:09;101118.16;;;7.71;55.45
51313;BME280;37397;53.226;10.400;2023-04-28T06:08:37;101106.47;;;7.69;55.26
51313;BME280;37397;53.226;10.400;2023-04-28T06:11:04;101117.13;;;7.77;55.25
51313;BME280;37397;53.226;10.400;2023-04-28T06:13:31;101119.50;;;7.79;55.31
51313;BME280;37397;53.226;10.400;2023-04-28T06:15:58;101115.44;;;7.80;55.58
51313;BME280;37397;53.226;10.400;2023-04-28T06:18:24;101120.53;;;7.85;55.23
51313;BME280;37397;53.226;10.400;2023-04-28T06:20:52;101119.31;;;7.86;55.04
51313;BME280;37397;53.226;10.400;2023-04-28T06:23:18;101111.88;;;7.89;55.09
51313;BME280;37397;53.226;10.400;2023-04-28T06:25:46;101112.59;;;7.93;55.25
51313;BME280;37397;53.226;10.400;2023-04-28T06:28:13;101106.13;;;7.92;55.00
51313;BME280;37397;53.226;10.400;2023-04-28T06:30:40;101112.34;;;8.00;55.10
51313;BME280;37397;53.226;10.400;2023-04-28T06:33:07;101106.66;;;8.00;55.09
51313;BME280;37397;53.226;10.400;2023-04-28T06:35:33;101102.44;;;8.04;54.68
51313;BME280;37397;53.226;10.400;2023-04-28T06:38:01;101101.53;;;8.08;54.65
51313;BME280;37397;53.226;10.400;2023-04-28T06:40:29;101097.78;;;8.11;54.98
51313;BME280;37397;53.226;10.400;2023-04-28T06:42:57;101102.22;;;8.12;54.92
51313;BME280;37397;53.226;10.400;2023-04-28T06:45:32;101093.09;;;8.17;54.80
51313;BME280;37397;53.226;10.400;2023-04-28T06:47:59;101101.97;;;8.19;54.91
51313;BME280;37397;53.226;10.400;2023-04-28T06:50:25;101100.72;;;8.20;54.85
51313;BME280;37397;53.226;10.400;2023-04-28T06:52:52;101096.06;;;8.26;54.71
51313;BME280;37397;53.226;10.400;2023-04-28T06:55:19;101091.94;;;8.27;54.84
51313;BME280;37397;53.226;10.400;2023-04-28T06:57:46;101082.94;;;8.29;54.69
51313;BME280;37397;53.226;10.400;2023-04-28T07:00:13;101077.94;;;8.33;54.58
51313;BME280;37397;53.226;10.400;2023-04-28T07:02:39;101083.50;;;8.36;54.55
51313;BME280;37397;53.226;10.400;2023-04-28T07:05:06;101084.19;;;8.40;54.39
51313;BME280;37397;53.226;10.400;2023-04-28T07:07:34;101080.78;;;8.46;54.42
51313;BME280;37397;53.226;10.400;2023-04-28T07:10:00;101081.44;;;8.50;54.28
51313;BME280;37397;53.226;10.400;2023-04-28T07:12:27;101069.25;;;8.49;54.23
51313;BME280;37397;53.226;10.400;2023-04-28T07:14:54;101067.44;;;8.55;54.15
51313;BME280;37397;53.226;10.400;2023-04-28T07:17:21;101073.31;;;8.61;54.02
51313;BME280;37397;53.226;10.400;2023-04-28T07:19:47;101065.13;;;8.63;54.08
51313;BME280;37397;53.226;10.400;2023-04-28T07:22:16;101061.34;;;8.66;54.13
51313;BME280;37397;53.226;10.400;2023-04-28T07:24:43;101067.56;;;8.74;54.26
51313;BME280;37397;53.226;10.400;2023-04-28T07:27:10;101058.09;;;8.77;54.27
51313;BME280;37397;53.226;10.400;2023-04-28T07:29:36;101049.44;;;8.81;54.33
51313;BME280;37397;53.226;10.400;2023-04-28T07:32:03;101064.66;;;8.87;54.04
51313;BME280;37397;53.226;10.400;2023-04-28T07:34:33;101059.31;;;8.89;53.97
51313;BME280;37397;53.226;10.400;2023-04-28T07:37:01;101060.28;;;8.95;53.99
51313;BME280;37397;53.226;10.400;2023-04-28T07:39:30;101045.47;;;9.00;53.92
51313;BME280;37397;53.226;10.400;2023-04-28T07:41:57;101055.09;;;9.03;53.97
51313;BME280;37397;53.226;10.400;2023-04-28T07:44:24;101052.47;;;9.08;54.05
51313;BME280;37397;53.226;10.400;2023-04-28T07:46:52;101044.25;;;9.10;53.95
51313;BME280;37397;53.226;10.400;2023-04-28T07:49:18;101048.09;;;9.17;53.89
51313;BME280;37397;53.226;10.400;2023-04-28T07:51:45;101051.56;;;9.21;53.86
51313;BME280;37397;53.226;10.400;2023-04-28T07:54:11;101042.91;;;9.24;53.79
51313;BME280;37397;53.226;10.400;2023-04-28T07:56:38;101041.16;;;9.27;53.98
51313;BME280;37397;53.226;10.400;2023-04-28T07:59:04;101039.31;;;9.33;53.82
51313;BME280;37397;53.226;10.400;2023-04-28T08:01:31;101037.13;;;9.37;53.86
51313;BME280;37397;53.226;10.400;2023-04-28T08:03:57;101027.63;;;9.40;53.69
51313;BME280;37397;53.226;10.400;2023-04-28T08:06:24;101030.66;;;9.46;53.59
51313;BME280;37397;53.226;10.400;2023-04-28T08:08:51;101020.38;;;9.48;53.76
51313;BME280;37397;53.226;10.400;2023-04-28T08:11:17;101022.63;;;9.54;53.54
51313;BME280;37397;53.226;10.400;2023-04-28T08:13:44;101021.22;;;9.58;53.62
51313;BME280;37397;53.226;10.400;2023-04-28T08:16:10;101021.38;;;9.64;53.64
51313;BME280;37397;53.226;10.400;2023-04-28T08:18:37;101018.88;;;9.66;53.62
51313;BME280;37397;53.226;10.400;2023-04-28T08:21:05;101025.03;;;9.74;53.40
51313;BME280;37397;53.226;10.400;2023-04-28T08:23:32;101026.16;;;9.76;53.19
51313;BME280;37397;53.226;10.400;2023-04-28T08:25:58;101021.09;;;9.80;53.21
51313;BME280;37397;53.226;10.400;2023-04-28T08:28:26;101026.50;;;9.88;53.08
51313;BME280;37397;53.226;10.400;2023-04-28T08:30:53;101027.13;;;9.92;53.06
51313;BME280;37397;53.226;10.400;2023-04-28T08:33:20;101023.34;;;9.95;52.96
51313;BME280;37397;53.226;10.400;2023-04-28T08:35:49;101021.47;;;10.01;52.83
51313;BME280;37397;53.226;10.400;2023-04-28T08:38:16;101019.25;;;10.05;52.73
51313;BME280;37397;53.226;10.400;2023-04-28T08:40:43;101023.53;;;10.10;52.76
51313;BME280;37397;53.226;10.400;2023-04-28T08:43:10;101012.63;;;10.08;52.81
51313;BME280;37397;53.226;10.400;2023-04-28T08:45:40;101018.66;;;10.19;52.75
51313;BME280;37397;53.226;10.400;2023-04-28T08:48:17;101026.56;;;10.25;52.55
51313;BME280;37397;53.226;10.400;2023-04-28T08:50:52;101016.59;;;10.29;52.47
51313;BME280;37397;53.226;10.400;2023-04-28T08:53:24;101018.84;;;10.34;52.58
51313;BME280;37397;53.226;10.400;2023-04-28T08:55:56;101016.16;;;10.40;52.41
51313;BME280;37397;53.226;10.400;2023-04-28T08:58:24;101008.69;;;10.43;52.60
51313;BME280;37397;53.226;10.400;2023-04-28T09:00:52;100999.97;;;10.46;52.52
51313;BME280;37397;53.226;10.400;2023-04-28T09:03:19;101002.03;;;10.55;52.59
51313;BME280;37397;53.226;10.400;2023-04-28T09:05:48;100997.75;;;10.60;52.52
51313;BME280;37397;53.226;10.400;2023-04-28T09:08:15;100993.13;;;10.62;52.43
51313;BME280;37397;53.226;10.400;2023-04-28T09:10:42;100997.72;;;10.69;52.41
51313;BME280;37397;53.226;10.400;2023-04-28T09:13:08;100999.00;;;10.77;52.41
51313;BME280;37397;53.226;10.400;2023-04-28T09:15:37;100988.19;;;10.81;52.45
51313;BME280;37397;53.226;10.400;2023-04-28T09:18:06;100992.47;;;10.86;52.08
51313;BME280;37397;53.226;10.400;2023-04-28T09:20:35;101001.16;;;10.91;52.16
51313;BME280;37397;53.226;10.400;2023-04-28T09:23:16;100992.91;;;10.93;51.83
51313;BME280;37397;53.226;10.400;2023-04-28T09:26:02;100986.84;;;11.01;51.63
51313;BME280;37397;53.226;10.400;2023-04-28T09:28:31;100984.47;;;11.08;51.85
51313;BME280;37397;53.226;10.400;2023-04-28T09:30:58;100982.72;;;11.11;51.95
51313;BME280;37397;53.226;10.400;2023-04-28T09:33:25;100977.13;;;11.17;52.08
51313;BME280;37397;53.226;10.400;2023-04-28T09:35:52;100971.56;;;11.22;52.00
51313;BME280;37397;53.226;10.400;2023-04-28T09:38:20;100983.91;;;11.28;51.98
51313;BME280;37397;53.226;10.400;2023-04-28T09:40:55;100984.03;;;11.34;51.69
51313;BME280;37397;53.226;10.400;2023-04-28T09:43:24;100973.25;;;11.38;51.82
51313;BME280;37397;53.226;10.400;2023-04-28T09:45:52;100975.25;;;11.47;52.00
51313;BME280;37397;53.226;10.400;2023-04-28T09:48:29;100985.72;;;11.50;51.52
51313;BME280;37397;53.226;10.400;2023-04-28T09:50:56;100972.03;;;11.54;51.87
51313;BME280;37397;53.226;10.400;2023-04-28T09:53:25;100974.25;;;11.59;52.18
51313;BME280;37397;53.226;10.400;2023-04-28T09:55:54;100971.19;;;11.63;51.80
51313;BME280;37397;53.226;10.400;2023-04-28T09:58:22;100968.44;;;11.68;51.70
51313;BME280;37397;53.226;10.400;2023-04-28T10:00:54;100962.09;;;11.74;51.67
51313;BME280;37397;53.226;10.400;2023-04-28T10:03:23;100958.22;;;11.77;51.70
51313;BME280;37397;53.226;10.400;2023-04-28T10:05:54;100957.59;;;11.82;51.58
51313;BME280;37397;53.226;10.400;2023-04-28T10:08:22;100949.59;;;11.86;51.62
51313;BME280;37397;53.226;10.400;2023-04-28T10:10:51;100951.31;;;11.93;51.79
51313;BME280;37397;53.226;10.400;2023-04-28T10:13:21;100952.44;;;11.95;51.50
51313;BME280;37397;53.226;10.400;2023-04-28T10:15:49;100941.59;;;11.99;51.57
51313;BME280;37397;53.226;10.400;2023-04-28T10:18:15;100925.81;;;12.04;51.52
51313;BME280;37397;53.226;10.400;2023-04-28T10:40:43;100894.19;;;12.37;51.49
51313;BME280;37397;53.226;10.400;2023-04-28T10:43:11;100895.38;;;12.46;51.60
51313;BME280;37397;53.226;10.400;2023-04-28T11:51:03;100847.84;;;13.55;50.55
51313;BME280;37397;53.226;10.400;2023-04-28T11:53:42;100853.94;;;13.62;50.50
51313;BME280;37397;53.226;10.400;2023-04-28T11:56:09;100840.66;;;13.65;50.36
51313;BME280;37397;53.226;10.400;2023-04-28T11:58:37;100844.97;;;13.75;50.35
51313;BME280;37397;53.226;10.400;2023-04-28T12:01:12;100842.66;;;13.79;50.27
51313;BME280;37397;53.226;10.400;2023-04-28T12:03:44;100837.22;;;13.81;49.88
51313;BME280;37397;53.226;10.400;2023-04-28T12:06:18;100836.00;;;13.88;49.82
51313;BME280;37397;53.226;10.400;2023-04-28T12:08:46;100833.19;;;13.94;50.05
51313;BME280;37397;53.226;10.400;2023-04-28T12:11:13;100836.91;;;14.00;50.24
51313;BME280;37397;53.226;10.400;2023-04-28T12:13:42;100841.91;;;14.05;50.02
51313;BME280;37397;53.226;10.400;2023-04-28T12:16:08;100829.69;;;14.10;49.63
51313;BME280;37397;53.226;10.400;2023-04-28T12:18:35;100826.09;;;14.15;49.69
51313;BME280;37397;53.226;10.400;2023-04-28T12:21:02;100825.88;;;14.19;49.56
51313;BME280;37397;53.226;10.400;2023-04-28T12:23:32;100828.78;;;14.25;49.26
51313;BME280;37397;53.226;10.400;2023-04-28T12:26:00;100815.50;;;14.27;49.56
51313;BME280;37397;53.226;10.400;2023-04-28T12:28:37;100810.84;;;14.30;48.86
51313;BME280;37397;53.226;10.400;2023-04-28T12:31:05;100814.84;;;14.38;49.16
51313;BME280;37397;53.226;10.400;2023-04-28T12:33:34;100808.06;;;14.41;49.16
51313;BME280;37397;53.226;10.400;2023-04-28T12:36:05;100807.06;;;14.44;49.15
51313;BME280;37397;53.226;10.400;2023-04-28T12:38:31;100803.44;;;14.49;49.38
51313;BME280;37397;53.226;10.400;2023-04-28T12:40:58;100795.09;;;14.51;49.17
51313;BME280;37397;53.226;10.400;2023-04-28T12:43:25;100794.84;;;14.55;49.25
51313;BME280;37397;53.226;10.400;2023-04-28T12:45:54;100807.72;;;14.59;49.20
51313;BME280;37397;53.226;10.400;2023-04-28T12:48:22;100795.22;;;14.63;49.09
51313;BME280;37397;53.226;10.400;2023-04-28T12:50:50;100800.94;;;14.63;49.19
51313;BME280;37397;53.226;10.400;2023-04-28T12:53:17;100801.50;;;14.67;49.11
51313;BME280;37397;53.226;10.400;2023-04-28T12:55:43;100808.56;;;14.71;49.20
51313;BME280;37397;53.226;10.400;2023-04-28T12:58:10;100802.06;;;14.71;49.10
51313;BME280;37397;53.226;10.400;2023-04-28T13:00:36;100788.75;;;14.73;49.22
51313;BME280;37397;53.226;10.400;2023-04-28T13:03:03;100781.19;;;14.76;48.89
51313;BME280;37397;53.226;10.400;2023-04-28T13:05:30;100780.16;;;14.79;48.52
51313;BME280;37397;53.226;10.400;2023-04-28T13:07:57;100790.63;;;14.82;48.64
51313;BME280;37397;53.226;10.400;2023-04-28T13:10:24;100779.41;;;14.84;48.79
51313;BME280;37397;53.226;10.400;2023-04-28T13:12:51;100778.91;;;14.86;48.88
51313;BME280;37397;53.226;10.400;2023-04-28T13:15:18;100775.81;;;14.89;48.73
51313;BME280;37397;53.226;10.400;2023-04-28T13:17:44;100779.72;;;14.92;48.91
51313;BME280;37397;53.226;10.400;2023-04-28T13:20:11;100776.34;;;14.93;48.82
51313;BME280;37397;53.226;10.400;2023-04-28T13:22:38;100767.97;;;14.95;48.90
51313;BME280;37397;53.226;10.400;2023-04-28T13:25:05;100772.19;;;15.00;48.88
51313;BME280;37397;53.226;10.400;2023-04-28T13:27:32;100766.22;;;15.04;48.87
51313;BME280;37397;53.226;10.400;2023-04-28T13:29:58;100762.84;;;15.05;48.60
51313;BME280;37397;53.226;10.400;2023-04-28T13:32:25;100762.28;;;15.07;48.77
51313;BME280;37397;53.226;10.400;2023-04-28T13:34:53;100755.50;;;15.10;48.73
51313;BME280;37397;53.226;10.400;2023-04-28T13:37:20;100754.22;;;15.11;48.66
51313;BME280;37397;53.226;10.400;2023-04-28T13:39:46;100747.44;;;15.14;48.73
51313;BME280;37397;53.226;10.400;2023-04-28T13:42:13;100743.28;;;15.15;48.27
51313;BME280;37397;53.226;10.400;2023-04-28T13:44:41;100747.72;;;15.16;48.39
51313;BME280;37397;53.226;10.400;2023-04-28T13:47:07;100748.25;;;15.20;48.13
51313;BME280;37397;53.226;10.400;2023-04-28T13:49:35;100754.28;;;15.22;48.30
51313;BME280;37397;53.226;10.400;2023-04-28T13:52:02;100738.06;;;15.19;48.09
51313;BME280;37397;53.226;10.400;2023-04-28T13:54:29;100744.38;;;15.23;48.27
51313;BME280;37397;53.226;10.400;2023-04-28T13:56:56;100742.53;;;15.26;48.06
51313;BME280;37397;53.226;10.400;2023-04-28T13:59:22;100742.53;;;15.26;47.90
51313;BME280;37397;53.226;10.400;2023-04-28T14:01:49;100731.31;;;15.28;47.84
51313;BME280;37397;53.226;10.400;2023-04-28T14:04:15;100737.84;;;15.28;47.68
51313;BME280;37397;53.226;10.400;2023-04-28T14:06:42;100736.56;;;15.29;47.52
51313;BME280;37397;53.226;10.400;2023-04-28T14:09:09;100734.97;;;15.28;47.46
51313;BME280;37397;53.226;10.400;2023-04-28T14:11:36;100725.81;;;15.30;47.84
51313;BME280;37397;53.226;10.400;2023-04-28T14:14:03;100723.47;;;15.28;47.77
51313;BME280;37397;53.226;10.400;2023-04-28T14:16:29;100723.47;;;15.28;47.56